Terminal Aerodrome Forecast
Issued by NWS

Home | Current Version | Previous Version | Text Only | Print | Product List | Glossary On
Versions: 1 2 3 4 5 6 7 8 9 10 11 12 13 14 15 16 17 18 19 20 21 22 23 24 25 26 27 28 29 30 31 32 33 34 35
000
FTUS44 KBMX 240841 AAB
TAFASN
TAF AMD
KASN 240841Z 2409/2506 00000KT 6SM BR BCFG SCT002
      TEMPO 2410/2412 1SM BR
     FM241300 26004KT P6SM SKC
     FM241500 28012G22KT P6SM SKC=

USA.gov is the U.S. government's official web portal to all federal, state and local government web resources and services.